Statewide Weather Sensors

Route Weather Station Name Milepost Date / Time Surface Status Surface Temp Precip Intensity Wind Avg Wind Gust Dir Dewpoint Humidity Air Temp Visibility
I 25 Wyo Hill 3.52 Feb 03, 2023 06:16 am     None None 16 mph 30 mph NW 6.8°F 31% 33.8°F > 1/2 mi
I 25 Whitaker 28.1 Feb 03, 2023 06:16 am Ice Watch 20.5°F None None 36 mph 40 mph W 12.2°F 53% 26.6°F > 1/2 mi
I 25 Bear Creek 46.77 Feb 03, 2023 06:16 am Dry 26.4°F None None 35 mph 42 mph W 10.4°F 35% 33.8°F > 1/2 mi
I 25 Bordeaux 70.8 Feb 03, 2023 06:16 am Dry 26.1°F None None 46 mph 56 mph SW 8.6°F 38% 30.2°F > 1/2 mi
I 25 Coleman 98.7 Feb 03, 2023 06:16 am Dry 24.6°F None None 23 mph 31 mph W 14.0°F 33% 39.2°F > 1/2 mi
I 25 Platte/Converse County Line 119.9 Feb 03, 2023 06:16 am Dry 17.4°F None None 6 mph 7 mph NW 15.8°F 47% 33.8°F < 1/4 mi
I 25 Deer Creek 164.2 Feb 03, 2023 06:16 am Dry 28.6°F None None 24 mph 33 mph SW 12.2°F 39% 35.6°F > 1/2 mi
I 25 Hat Six 181.67 Feb 03, 2023 06:16 am N/A   None None 19 mph 31 mph W 14.0°F 32% 41.0°F > 1/2 mi
I 25 F Street Hill 189.51 Feb 03, 2023 06:16 am Dry 26.2°F None None 26 mph 36 mph SW 10.4°F 34% 35.6°F > 1/2 mi
I 25 Twenty Mile Hill 207.2 Feb 03, 2023 06:16 am Dry 18.1°F None None 33 mph 39 mph SW 12.2°F 68% 21.2°F > 1/2 mi
I 25 Smokey Gap 228.58 Feb 03, 2023 06:16 am Dry 18.0°F None None 20 mph 32 mph SW 12.2°F 53% 28.4°F > 1/2 mi
I 25 Tisdale 238.87 Feb 03, 2023 06:17 am Dry 18.9°F None None 17 mph 25 mph SW 14.0°F 51% 30.2°F < 1/2 mi
I 25 I-25 Divide 267.3 Jan 12, 2023 11:42 am                      
I 80 Evanston POE .06 Feb 03, 2023 06:16 am N/A 158.0°F None None 2 mph 4 mph SW -14.8°F 83% -11.2°F > 1/2 mi
I 80 Evanston 4.2 Feb 03, 2023 06:16 am N/A   None                
I 80 Bear River Drive 6.94 Aug 18, 2022 05:58 am                      
I 80 Painter 10.16 Feb 03, 2023 06:16 am Dry 12.4°F None None 7 mph 10 mph E 1.4°F 57% 14.0°F > 1/2 mi
I 80 First Divide 13.86 Feb 03, 2023 06:16 am Dry 15.4°F None None 7 mph 7 mph SW -0.4°F 29% 28.4°F > 1/2 mi
I 80 US 189 Interchange 17.66 Feb 03, 2023 06:16 am Dry 13.6°F None None 4 mph 5 mph SW 1.4°F 63% 10.4°F > 1/2 mi
I 80 Coal Road 20.95 Feb 03, 2023 06:16 am Dry 17.4°F None None 1 mph 3 mph S 1.4°F 49% 17.6°F > 1/2 mi
I 80 Leroy 23.35 Feb 03, 2023 06:16 am Dry 10.6°F None None 3 mph 4 mph SE -5.8°F 70% 1.4°F > 1/2 mi
I 80 French 27.6 Feb 03, 2023 06:16 am Dry 16.0°F None None 4 mph 6 mph S -0.4°F 51% 14.0°F > 1/2 mi
I 80 Church Butte 52.65 Feb 03, 2023 06:16 am Dry 9.7°F None None 2 mph 3 mph E 8.6°F 95% 8.6°F > 1/2 mi
I 80 Peru Hill 82.31 Feb 03, 2023 06:16 am Dry 2.5°F None None 2 mph 3 mph E -11.2°F 80% -5.8°F > 1/2 mi
I 80 Green River Tunnel 90.5 Feb 03, 2023 06:16 am Dry 6.8°F None None 2 mph 2 mph NE -9.4°F 82% -5.8°F > 1/2 mi
I 80 Rock Springs West 97.9 Feb 03, 2023 06:16 am N/A   None None 2 mph 3 mph W -7.6°F 82% -2.2°F > 1/2 mi
I 80 Baxter Road 111.5 Feb 03, 2023 06:16 am Dry 7.0°F None None 2 mph 4 mph W 59.0°F 84%   > 1/2 mi
I 80 Mile Marker 124.5 124.5 Feb 03, 2023 06:16 am Dry 5.9°F None None 1 mph 2 mph SE -4.0°F 86% -0.4°F > 1/2 mi
I 80 Point of Rocks 129.8 Feb 03, 2023 06:16 am Dry 3.7°F None None 1 mph 3 mph SE -4.0°F 89% -2.2°F > 1/2 mi
I 80 Black Butte 134.91 Feb 03, 2023 06:16 am Dry 9.9°F None None 0 mph 7 mph SW 1.4°F 72% 8.6°F > 1/2 mi
I 80 Bitter Creek 141.83 Feb 03, 2023 06:17 am N/A 158.0°F None None 12 mph 12 mph SW 3.2°F 49% 19.4°F > 1/2 mi
I 80 Tipton 156.72 Feb 03, 2023 06:16 am Dry 14.7°F None None 0 mph 0 mph S 6.8°F 63% 17.6°F > 1/2 mi
I 80 Continental Divide 184.3 Feb 03, 2023 06:16 am Ice Watch 9.5°F None None 20 mph 22 mph SW 5.0°F 70% 12.2°F > 1/2 mi
I 80 Sinclair 221.7 Feb 03, 2023 06:16 am Dry 17.4°F None None 20 mph 27 mph W 8.6°F 49% 24.8°F > 1/2 mi
I 80 Walcott Junction 234.66 Feb 03, 2023 06:16 am Dry 12.9°F None None 17 mph 20 mph SW 6.8°F 49% 23.0°F > 1/2 mi
I 80 Dana Ridge 244.8 Feb 03, 2023 06:16 am Dry 10.9°F None None 12 mph 14 mph SW 1.4°F 58% 14.0°F > 1/2 mi
I 80 Mile Marker 249.1 249.1 Feb 03, 2023 06:16 am N/A   None None 27 mph 32 mph SW 6.8°F 50% 23.0°F > 1/2 mi
I 80 Halleck Ridge 252.16 Feb 03, 2023 06:16 am Dry 21.0°F None None 34 mph 42 mph NW 5.0°F 39% 28.4°F > 1/2 mi
I 80 Elk Mountain 256.17 Feb 03, 2023 06:16 am Dry 22.5°F None None 24 mph 36 mph S 6.8°F 37% 30.2°F > 1/2 mi
I 80 County Road 402 262 Feb 03, 2023 06:16 am Ice Warning 19.4°F None None 34 mph 50 mph SW 8.6°F 46% 26.6°F > 1/2 mi
I 80 Wagonhound 266.58 Feb 03, 2023 06:16 am Dry 21.4°F None None 22 mph 29 mph SW 1.4°F 29% 30.2°F > 1/2 mi
I 80 Foote Creek 269.5 Feb 03, 2023 06:16 am Trace Moisture 19.9°F None None 32 mph 40 mph S 5.0°F 36% 30.2°F > 1/2 mi
I 80 Arlington 271.8 Feb 03, 2023 06:16 am Dry 22.8°F None None 31 mph 43 mph W 3.2°F 31% 30.2°F > 1/2 mi
I 80 Arlington East 273.85 Feb 03, 2023 06:16 am Dry 24.1°F None None 25 mph 36 mph SW 1.4°F 27% 32.0°F > 1/2 mi
I 80 Cooper Cove 279.36 Feb 03, 2023 06:16 am Dry 21.9°F None None 26 mph 47 mph S 5.0°F 28% 33.8°F > 1/2 mi
I 80 Strouss Hill 283.75 Feb 03, 2023 06:16 am N/A   None None 27 mph 41 mph N 3.2°F 28% 32.0°F > 1/2 mi
I 80 Quealy Dome 289.5 Feb 03, 2023 06:16 am Dry 18.3°F None None 9 mph 19 mph NW     30.2°F > 1/2 mi
I 80 Herrick Lane 297.66 Feb 03, 2023 06:16 am Dry 21.2°F None None 11 mph 16 mph SW 5.0°F 36% 28.4°F > 1/2 mi
I 80 Summit East 325.8 Feb 03, 2023 06:16 am Dry 11.3°F None None 18 mph 25 mph S -0.4°F 38% 21.2°F > 1/2 mi
I 80 Vedauwoo 329.4 Feb 03, 2023 06:16 am Dry 11.1°F None None 19 mph 27 mph SW 1.4°F 35% 24.8°F > 1/2 mi
I 80 Lone Tree 333.32 Feb 03, 2023 06:16 am Dry 17.8°F None None 23 mph 27 mph W 1.4°F 36% 24.8°F > 1/2 mi
I 80 Buford East 336.1 Feb 03, 2023 06:16 am Dry 19.2°F None None 26 mph 31 mph W 3.2°F 37% 24.8°F > 1/2 mi
I 80 Remount Road 340.5 Feb 03, 2023 06:16 am Dry 19.9°F None None 20 mph 22 mph W 5.0°F 40% 26.6°F > 1/2 mi
I 80 Otto 347.69 Feb 03, 2023 06:16 am Dry 25.9°F None None       5.0°F 31% 32.0°F > 1/2 mi
I 80 MP 353 353 Feb 03, 2023 06:16 am Ice Watch 27.7°F None None 27 mph 34 mph W 6.8°F 33% 32.0°F > 1/2 mi
I 80 Cheyenne East 373 Feb 03, 2023 06:16 am Dry 28.9°F None None 28 mph 36 mph SW 10.4°F 35% 33.8°F > 1/2 mi
I 90 Montana State Line .1 Feb 03, 2023 06:16 am Trace Moisture 19.6°F None None 3 mph 6 mph N 14.0°F 42% 35.6°F > 1/2 mi
I 90 Pompey Creek 35.3 Feb 03, 2023 06:16 am Dry 30.0°F None None 4 mph 12 mph E 8.6°F 25% 42.8°F > 1/2 mi
I 90 Sheridan/Johnson County Line 41.33 Jan 29, 2023 07:04 pm                      
I 90 Piney Creek Interchange 44.7 Feb 03, 2023 06:16 am Dry 22.3°F None   2 mph 3 mph E 12.2°F 39% 33.8°F  
I 90 Kearny Divide 45.33 Feb 03, 2023 06:16 am Dry 25.2°F None None 3 mph 5 mph SE 15.8°F 33% 41.0°F > 1/2 mi
I 90 Indian Creek Road 83.3 Jan 29, 2023 04:18 am                      
I 90 Dead Horse 91.5 Feb 03, 2023 06:16 am Dry 22.5°F None None 6 mph 11 mph SE 15.8°F 51% 32.0°F > 1/2 mi
I 90 Mile Marker 108 108 Feb 03, 2023 06:16 am Dry 20.3°F None None 19 mph 21 mph S 14.0°F 52% 28.4°F > 1/2 mi
I 90 Inyan Kara 170.5 Feb 03, 2023 06:16 am Trace Moisture 44.1°F None   9 mph 11 mph E 14.0°F 84% 17.6°F  
I 90 Beulah 205.9 Feb 03, 2023 06:16 am Dry 24.6°F None None 19 mph 25 mph SW 15.8°F 41% 37.4°F > 1/2 mi
US 14 Ucross 27.83 Feb 03, 2023 06:16 am Ice Warning 10.6°F None None 0 mph 1 mph NE 5.0°F 89% 6.8°F > 1/2 mi
US 14 Granite Pass 38.95 Feb 03, 2023 06:16 am     None None 20 mph 24 mph NE 8.6°F 51% 23.0°F > 1/2 mi
US 16 Big Horn County Line 44.01 Feb 03, 2023 06:16 am Snow Warning 2.5°F None None 3 mph 5 mph N 5.0°F 80% 10.4°F > 1/2 mi
US 191 Farson 40.45 Feb 03, 2023 06:16 am Dry -0.8°F None   2 mph 2 mph N -16.6°F 79% -11.2°F  
US 191 Warren Bridge 119.9 Feb 03, 2023 06:16 am Dry 3.7°F None None 2 mph 5 mph W -4.0°F 83% -0.4°F > 1/2 mi
US 20 Natrona 30 Feb 03, 2023 06:16 am N/A   None None 15 mph 19 mph NW 8.6°F 54% 21.2°F > 1/2 mi
US 20 Hiland 57.4 Feb 03, 2023 06:16 am Dry 17.6°F None None 22 mph 25 mph S 10.4°F 57% 23.0°F > 1/2 mi
US 20 Van Tassell 57.85 Feb 03, 2023 06:16 am Chemically Wet 12.9°F None None 6 mph 7 mph S 12.2°F 63% 23.0°F > 1/2 mi
US 26 Wind River Lake 26.05 Feb 03, 2023 06:16 am Ice Warning 30.0°F None None 9 mph 12 mph N 8.6°F 69% 17.6°F > 1/2 mi
US 287 Pumpkin Vine 420.4 Feb 03, 2023 06:16 am Dry 14.0°F None None 12 mph 13 mph N       > 1/2 mi
US 30 Sage Junction 34 Feb 03, 2023 06:16 am Dry 1.9°F None None 4 mph 6 mph NW -9.4°F 84% -5.8°F > 1/2 mi
US 30 Nugget Canyon 39.7 Sep 27, 2021 12:52 pm                      
US 85 Gun Barrel 46.8 Feb 03, 2023 06:16 am Dry 25.7°F None None 27 mph 31 mph N 14.0°F 44% 33.8°F > 1/2 mi
US 85 Four Corners 247.2 Feb 03, 2023 06:16 am Dry 10.8°F None None 7 mph 11 mph E 10.4°F 65% 19.4°F > 1/2 mi
WY 120 Meeteetse 61.5 Feb 03, 2023 06:16 am Dry 18.5°F None   5 mph 7 mph W -20.2°F 9% 30.2°F > 1/2 mi
WY 210 Wildcat Trail 21.52 Feb 03, 2023 06:16 am Dry 32.2°F None None 8 mph 11 mph SE 1.4°F 28% 30.2°F > 1/2 mi
WY 210 Hynds Lodge Road 24.55 Feb 03, 2023 06:16 am N/A   None None 13 mph 24 mph W 1.4°F 28% 28.4°F > 1/2 mi
WY 22 Teton Pass 11.2 Feb 03, 2023 06:16 am Ice Watch 9.9°F None None 1 mph 1 mph NE 14.0°F 89% 17.6°F > 1/2 mi
WY 220 Pathfinder Hill 80.1 Feb 03, 2023 06:16 am Chemically Wet 8.6°F None None 9 mph 11 mph SW 6.8°F 69% 14.0°F > 1/2 mi
WY 230 Skyline 230 113.2 Feb 03, 2023 06:16 am N/A   None                
WY 258 Outer Drive 13.77 Feb 03, 2023 06:16 am Dry 34.2°F None None 12 mph 21 mph W 8.6°F 30% 37.4°F > 1/2 mi
WY 28 New South Pass 41.4 Feb 03, 2023 06:16 am Dry 9.5°F None None 14 mph 19 mph W 3.2°F 50% 19.4°F > 1/2 mi
WY 28 Lower Red Canyon 59.71 Feb 03, 2023 06:16 am Dry 21.2°F None None 14 mph 24 mph S 8.6°F 24% 42.8°F > 1/2 mi
WY 296 Chief Joseph 32.96 Feb 03, 2023 06:16 am Ice Warning 14.2°F None None 30 mph 40 mph NW 10.4°F 50% 24.8°F > 1/2 mi
WY 372 Shute Creek 34 Feb 03, 2023 06:16 am N/A   None                
WY 387 Pine Tree Junction 131.79 Feb 01, 2023 11:44 pm                      
WY 487 Shirley Rim 37 Feb 03, 2023 06:16 am Ice Watch 13.5°F None None 9 mph 15 mph SW 8.6°F 54% 21.2°F > 1/2 mi
WY 59 Belle Fourche 87 Feb 03, 2023 06:16 am Dry 24.1°F None   19 mph 24 mph W 14.0°F 57% 28.4°F  
WY 789 Beaver Rim 48.1 Feb 03, 2023 06:16 am     None None 30 mph 35 mph SW -27.4°F 9% 21.2°F > 1/2 mi

Contact Us
Copyright 2021 Disclaimer Privacy Policy Media